createdAt,value
2023-05-14T00:01:21.515Z,101951.54
2023-05-14T00:03:49.889Z,101949.33
2023-05-14T00:06:18.765Z,101953.21
2023-05-14T00:08:47.334Z,101951.89
2023-05-14T00:11:16.237Z,101954.34
2023-05-14T00:13:44.725Z,101950.48
2023-05-14T00:16:13.392Z,101946.97
2023-05-14T00:18:41.854Z,101947.24
2023-05-14T00:21:10.100Z,101950.39
2023-05-14T00:23:38.238Z,101954.58
2023-05-14T00:26:06.954Z,101956.73
2023-05-14T00:28:35.611Z,101958.65
2023-05-14T00:31:04.523Z,101955.77
2023-05-14T00:33:32.928Z,101952.06
2023-05-14T00:36:01.829Z,101949.81
2023-05-14T00:38:30.106Z,101951.11
2023-05-14T00:40:58.280Z,101945.80
2023-05-14T00:43:26.779Z,101942.80
2023-05-14T00:45:56.130Z,101942.84
2023-05-14T00:48:25.169Z,101942.84
2023-05-14T00:50:54.485Z,101936.32
2023-05-14T00:53:22.973Z,101937.34
2023-05-14T00:55:51.458Z,101928.48
2023-05-14T00:58:20.228Z,101924.44
2023-05-14T01:00:48.658Z,101928.96
2023-05-14T01:03:17.486Z,101925.30
2023-05-14T01:06:04.345Z,101923.48
2023-05-14T01:09:09.168Z,101924.66
2023-05-14T01:11:46.131Z,101923.52
2023-05-14T01:14:51.664Z,101920.08
2023-05-14T01:17:23.120Z,101920.77
2023-05-14T01:19:52.491Z,101922.03
2023-05-14T01:22:20.906Z,101922.80
2023-05-14T01:24:49.290Z,101928.04
2023-05-14T01:27:39.219Z,101929.87
2023-05-14T01:30:15.851Z,101926.83
2023-05-14T01:32:48.484Z,101925.09
2023-05-14T01:35:17.287Z,101926.84
2023-05-14T01:37:47.486Z,101922.67
2023-05-14T01:40:16.135Z,101920.67
2023-05-14T01:42:45.740Z,101922.73
2023-05-14T01:45:14.126Z,101926.14
2023-05-14T01:47:42.869Z,101930.07
2023-05-14T01:50:11.633Z,101930.76
2023-05-14T01:52:40.816Z,101930.31
2023-05-14T01:55:09.676Z,101931.90
2023-05-14T01:57:38.002Z,101931.58
2023-05-14T02:00:07.475Z,101933.98
2023-05-14T02:02:42.186Z,101938.93
2023-05-14T02:05:12.714Z,101937.76
2023-05-14T02:07:43.613Z,101942.41
2023-05-14T02:10:11.987Z,101944.16
2023-05-14T02:12:40.784Z,101940.76
2023-05-14T02:15:11.103Z,101940.50
2023-05-14T02:17:39.524Z,101938.70
2023-05-14T02:20:10.275Z,101939.96
2023-05-14T02:22:40.325Z,101942.55
2023-05-14T02:25:11.478Z,101942.02
2023-05-14T02:27:40.839Z,101946.35
2023-05-14T02:30:13.402Z,101944.61
2023-05-14T02:32:42.087Z,101941.61
2023-05-14T02:35:10.673Z,101941.74
2023-05-14T02:37:42.724Z,101941.98
2023-05-14T02:40:12.737Z,101949.00
2023-05-14T02:42:40.894Z,101952.95
2023-05-14T02:45:09.377Z,101956.27
2023-05-14T02:47:38.315Z,101953.80
2023-05-14T02:50:07.692Z,101951.81
2023-05-14T02:52:36.135Z,101946.63
2023-05-14T02:55:05.312Z,101951.91
2023-05-14T02:57:33.586Z,101954.70
2023-05-14T03:00:02.242Z,101958.67
2023-05-14T03:02:31.212Z,101958.64
2023-05-14T03:05:00.322Z,101958.67
2023-05-14T03:07:29.095Z,101955.01
2023-05-14T03:09:57.408Z,101953.13
2023-05-14T03:12:25.766Z,101950.23
2023-05-14T03:14:53.922Z,101946.75
2023-05-14T03:17:22.249Z,101943.81
2023-05-14T03:19:50.401Z,101939.88
2023-05-14T03:22:19.238Z,101942.73
2023-05-14T03:24:49.419Z,101950.61
2023-05-14T03:27:17.716Z,101956.95
2023-05-14T03:29:46.701Z,101959.32
2023-05-14T03:32:15.299Z,101961.06
2023-05-14T03:34:44.899Z,101960.05
2023-05-14T03:37:13.911Z,101962.79
2023-05-14T03:39:42.296Z,101969.18
2023-05-14T03:42:10.976Z,101962.31
2023-05-14T03:44:39.682Z,101964.14
2023-05-14T03:47:08.146Z,101967.67
2023-05-14T03:49:36.745Z,101969.71
2023-05-14T03:52:05.124Z,101971.77
2023-05-14T03:54:33.308Z,101978.33
2023-05-14T03:57:02.132Z,101978.92
2023-05-14T03:59:30.688Z,101981.80
2023-05-14T04:01:58.980Z,101979.25
2023-05-14T04:04:27.592Z,101984.48
2023-05-14T04:06:56.621Z,101985.93
2023-05-14T04:09:25.057Z,101986.48
2023-05-14T04:11:53.334Z,101990.81
2023-05-14T04:14:22.433Z,101988.48
2023-05-14T04:16:50.839Z,101993.40
2023-05-14T04:19:20.157Z,101994.90
2023-05-14T04:21:51.626Z,101991.27
2023-05-14T04:24:19.974Z,101990.45
2023-05-14T04:26:48.552Z,101988.98
2023-05-14T04:29:16.758Z,101987.40
2023-05-14T04:31:45.261Z,101989.66
2023-05-14T04:34:13.502Z,101993.25
2023-05-14T04:36:41.978Z,101998.45
2023-05-14T04:39:12.409Z,102001.98
2023-05-14T04:41:41.015Z,102001.84
2023-05-14T04:44:09.386Z,102002.09
2023-05-14T04:46:38.349Z,102003.39
2023-05-14T04:49:06.616Z,102001.03
2023-05-14T04:51:34.813Z,102002.63
2023-05-14T04:54:03.250Z,102004.63
2023-05-14T04:56:31.583Z,102008.20
2023-05-14T04:58:59.900Z,102007.57
2023-05-14T05:01:28.027Z,102008.84
2023-05-14T05:03:57.971Z,102006.40
2023-05-14T05:06:26.893Z,102010.04
2023-05-14T05:08:55.989Z,102008.66
2023-05-14T05:11:24.181Z,102009.99
2023-05-14T05:13:52.434Z,102011.72
2023-05-14T05:16:20.920Z,102012.61
2023-05-14T05:18:49.274Z,102013.00
2023-05-14T05:21:17.516Z,102012.55
2023-05-14T05:23:46.013Z,102011.53
2023-05-14T05:26:14.262Z,102010.55
2023-05-14T05:28:42.777Z,102013.39
2023-05-14T05:31:11.320Z,102017.12
2023-05-14T05:33:40.052Z,102012.47
2023-05-14T05:36:09.131Z,102013.19
2023-05-14T05:38:40.619Z,102013.20
2023-05-14T05:41:11.890Z,102009.89
2023-05-14T05:43:40.241Z,102009.52
2023-05-14T05:46:08.631Z,102006.36
2023-05-14T05:48:37.414Z,102003.42
2023-05-14T05:51:05.903Z,102001.90
2023-05-14T05:53:39.921Z,102000.98
2023-05-14T05:56:10.864Z,101998.08
2023-05-14T05:58:38.999Z,101997.02
2023-05-14T06:01:08.810Z,101997.38
2023-05-14T06:03:37.327Z,101993.92
2023-05-14T06:06:06.563Z,101991.09
2023-05-14T06:08:34.836Z,101991.34
2023-05-14T06:11:03.322Z,101988.19
2023-05-14T06:13:31.697Z,101982.77
2023-05-14T06:16:00.192Z,101982.60
2023-05-14T06:18:28.696Z,101979.92
2023-05-14T06:20:58.030Z,101978.95
2023-05-14T06:23:26.663Z,101978.83
2023-05-14T06:25:54.962Z,101978.35
2023-05-14T06:28:23.594Z,101976.13
2023-05-14T06:30:54.108Z,101981.02
2023-05-14T06:33:29.875Z,101978.30
2023-05-14T06:36:06.361Z,101972.53
2023-05-14T06:38:34.693Z,101975.48
2023-05-14T06:41:02.912Z,101972.56
2023-05-14T06:43:31.149Z,101971.14
2023-05-14T06:46:00.159Z,101969.88
2023-05-14T06:48:29.677Z,101965.09
2023-05-14T06:50:58.137Z,101968.58
2023-05-14T06:53:26.320Z,101967.98
2023-05-14T06:55:54.596Z,101963.55
2023-05-14T06:58:22.984Z,101953.44
2023-05-14T07:00:51.367Z,101950.91
2023-05-14T07:03:19.826Z,101950.49
2023-05-14T07:05:48.534Z,101952.39
2023-05-14T07:08:16.840Z,101953.33
2023-05-14T07:10:45.220Z,101954.08
2023-05-14T07:13:13.291Z,101955.60
2023-05-14T07:15:41.574Z,101953.29
2023-05-14T07:18:09.909Z,101948.98
2023-05-14T07:20:38.238Z,101948.42
2023-05-14T07:23:06.415Z,101944.15
2023-05-14T07:25:35.076Z,101940.80
2023-05-14T07:28:03.297Z,101934.13
2023-05-14T07:30:31.778Z,101931.57
2023-05-14T07:33:00.056Z,101928.23
2023-05-14T07:35:28.451Z,101927.95
2023-05-14T07:37:56.942Z,101923.98
2023-05-14T07:40:25.483Z,101922.09
2023-05-14T07:42:54.121Z,101920.19
2023-05-14T07:45:22.612Z,101919.17
2023-05-14T07:47:52.360Z,101916.31
2023-05-14T07:50:20.866Z,101914.73
2023-05-14T07:52:49.194Z,101912.84
2023-05-14T07:55:17.466Z,101905.14
2023-05-14T07:57:46.222Z,101908.77
2023-05-14T08:00:16.125Z,101912.36
2023-05-14T08:02:49.224Z,101911.77
2023-05-14T08:05:18.466Z,101906.45
2023-05-14T08:07:48.184Z,101901.23
2023-05-14T08:10:16.468Z,101902.94
2023-05-14T08:12:44.765Z,101901.85
2023-05-14T08:15:13.251Z,101902.14
2023-05-14T08:17:41.563Z,101901.25
2023-05-14T08:20:12.236Z,101902.20
2023-05-14T08:22:40.541Z,101901.37
2023-05-14T08:25:08.821Z,101900.02
2023-05-14T08:27:37.339Z,101895.58
2023-05-14T08:30:06.827Z,101888.61
2023-05-14T08:32:35.035Z,101890.41
2023-05-14T08:35:03.487Z,101892.52
2023-05-14T08:37:32.384Z,101888.65
2023-05-14T08:40:00.933Z,101884.77
2023-05-14T08:42:29.191Z,101880.11
2023-05-14T08:45:02.234Z,101880.34
2023-05-14T08:47:31.593Z,101881.02
2023-05-14T08:50:04.672Z,101872.42
2023-05-14T08:52:33.866Z,101866.89
2023-05-14T08:55:06.749Z,101872.23
2023-05-14T08:57:35.878Z,101873.77
2023-05-14T09:00:15.272Z,101872.95
2023-05-14T09:02:44.933Z,101868.73
2023-05-14T09:05:15.016Z,101860.97
2023-05-14T09:07:44.000Z,101851.61
2023-05-14T09:10:12.493Z,101849.30
2023-05-14T09:12:41.094Z,101843.59
2023-05-14T09:15:09.783Z,101843.31
2023-05-14T09:17:38.117Z,101838.79
2023-05-14T09:20:10.199Z,101841.50
2023-05-14T09:22:39.516Z,101837.80
2023-05-14T09:25:12.461Z,101829.73
2023-05-14T09:27:41.006Z,101827.39
2023-05-14T09:30:12.620Z,101821.55
2023-05-14T09:32:47.240Z,101820.58
2023-05-14T09:35:23.079Z,101819.94
2023-05-14T09:37:53.738Z,101813.58
2023-05-14T09:40:24.981Z,101812.11
2023-05-14T09:42:53.502Z,101817.49
2023-05-14T09:45:21.802Z,101816.77
2023-05-14T09:47:50.425Z,101814.00
2023-05-14T09:50:19.594Z,101812.85
2023-05-14T09:52:48.185Z,101804.87
2023-05-14T09:55:16.464Z,101804.42
2023-05-14T09:57:45.212Z,101796.38
2023-05-14T10:00:14.603Z,101799.29
2023-05-14T10:02:45.212Z,101796.17
2023-05-14T10:05:15.991Z,101793.32
2023-05-14T10:07:49.067Z,101790.68
2023-05-14T10:10:20.529Z,101784.36
2023-05-14T10:12:59.918Z,101782.70
2023-05-14T10:15:37.175Z,101776.61
2023-05-14T10:18:13.215Z,101764.75
2023-05-14T10:20:42.340Z,101769.01
2023-05-14T10:23:11.037Z,101764.92
2023-05-14T10:25:39.857Z,101763.54
2023-05-14T10:28:08.495Z,101763.63
2023-05-14T10:30:41.742Z,101759.80
2023-05-14T10:33:15.508Z,101759.08
2023-05-14T10:36:17.289Z,101759.98
2023-05-14T10:38:47.268Z,101752.65
2023-05-14T10:41:18.026Z,101758.50
2023-05-14T10:43:46.409Z,101753.48
2023-05-14T10:46:15.201Z,101748.40
2023-05-14T10:48:44.496Z,101752.03
2023-05-14T10:51:12.971Z,101747.91
2023-05-14T10:53:43.308Z,101738.88
2023-05-14T10:56:14.933Z,101738.84
2023-05-14T10:58:45.133Z,101737.02
2023-05-14T11:01:13.960Z,101735.63
2023-05-14T11:03:45.428Z,101732.40
2023-05-14T11:06:15.928Z,101740.23
2023-05-14T11:08:44.848Z,101740.92
2023-05-14T11:11:13.214Z,101739.93
2023-05-14T11:13:41.797Z,101740.11
2023-05-14T11:18:42.029Z,101736.54
2023-05-14T11:21:10.750Z,101735.03
2023-05-14T11:23:38.961Z,101739.72
2023-05-14T11:26:07.650Z,101734.08
2023-05-14T11:28:36.606Z,101737.24
2023-05-14T11:31:05.844Z,101731.23
2023-05-14T11:33:34.092Z,101733.27
2023-05-14T11:36:02.659Z,101735.53
2023-05-14T11:38:31.059Z,101730.39
2023-05-14T11:40:59.850Z,101729.23
2023-05-14T11:43:29.488Z,101726.52
2023-05-14T11:45:57.874Z,101723.95
2023-05-14T11:48:26.334Z,101718.27
2023-05-14T11:50:54.412Z,101713.46
2023-05-14T11:53:28.214Z,101706.73
2023-05-14T11:56:00.081Z,101704.98
2023-05-14T11:58:28.304Z,101694.73
2023-05-14T12:00:57.098Z,101691.66
2023-05-14T12:03:31.343Z,101681.19
2023-05-14T12:06:01.505Z,101674.47
2023-05-14T12:08:31.603Z,101675.63
2023-05-14T12:11:02.240Z,101674.64
2023-05-14T12:13:31.785Z,101669.39
2023-05-14T12:16:02.383Z,101665.89
2023-05-14T12:18:32.533Z,101655.95
2023-05-14T12:21:05.419Z,101650.64
2023-05-14T12:23:34.349Z,101652.08
2023-05-14T12:26:06.828Z,101651.27
2023-05-14T12:28:38.897Z,101637.67
2023-05-14T12:31:07.179Z,101636.00
2023-05-14T12:33:35.534Z,101634.58
2023-05-14T12:36:20.435Z,101622.34
2023-05-14T12:38:51.587Z,101614.25
2023-05-14T12:41:19.783Z,101619.27
2023-05-14T12:43:49.740Z,101610.05
2023-05-14T12:46:18.135Z,101602.63
2023-05-14T12:48:46.835Z,101596.14
2023-05-14T12:51:15.582Z,101598.86
2023-05-14T12:53:43.893Z,101595.52
2023-05-14T12:56:15.675Z,101602.23
2023-05-14T12:58:43.864Z,101596.17
2023-05-14T13:01:12.230Z,101592.42
2023-05-14T13:03:40.447Z,101590.27
2023-05-14T13:06:09.431Z,101591.46
2023-05-14T13:08:37.682Z,101590.50
2023-05-14T13:11:06.067Z,101583.95
2023-05-14T13:13:34.457Z,101583.27
2023-05-14T13:16:03.805Z,101576.81
2023-05-14T13:18:32.278Z,101568.58
2023-05-14T13:21:00.832Z,101568.19
2023-05-14T13:23:29.104Z,101567.83
2023-05-14T13:25:57.297Z,101562.46
2023-05-14T13:28:25.680Z,101558.45
2023-05-14T13:31:14.989Z,101555.59
2023-05-14T13:33:45.023Z,101559.27
2023-05-14T13:36:14.884Z,101558.59
2023-05-14T13:38:46.021Z,101555.56
2023-05-14T13:41:14.380Z,101558.92
2023-05-14T13:43:42.553Z,101552.61
2023-05-14T13:46:11.210Z,101553.00
2023-05-14T13:48:39.557Z,101543.70
2023-05-14T13:51:07.885Z,101550.02
2023-05-14T13:53:38.217Z,101556.95
2023-05-14T13:56:08.664Z,101556.09
2023-05-14T13:58:37.106Z,101558.10
2023-05-14T14:01:10.855Z,101558.49
2023-05-14T14:03:39.183Z,101559.27
2023-05-14T14:06:07.477Z,101553.95
2023-05-14T14:08:38.619Z,101548.09
2023-05-14T14:11:08.125Z,101543.98
2023-05-14T14:13:37.165Z,101542.09
2023-05-14T14:16:06.438Z,101538.36
2023-05-14T14:18:34.851Z,101538.32
2023-05-14T14:21:08.318Z,101541.59
2023-05-14T14:23:36.689Z,101536.59
2023-05-14T14:26:04.989Z,101531.39
2023-05-14T14:28:33.811Z,101530.45
2023-05-14T14:31:02.985Z,101535.73
2023-05-14T14:33:31.739Z,101535.91
2023-05-14T14:36:00.224Z,101533.30
2023-05-14T14:38:28.740Z,101531.82
2023-05-14T14:40:58.124Z,101527.64
2023-05-14T14:43:26.480Z,101525.08
2023-05-14T14:45:58.864Z,101529.45
2023-05-14T14:48:31.560Z,101526.05
2023-05-14T14:51:03.692Z,101523.41
2023-05-14T14:53:32.852Z,101520.17
2023-05-14T14:56:01.798Z,101516.77
2023-05-14T14:58:31.116Z,101507.45
2023-05-14T15:00:59.360Z,101506.32
2023-05-14T15:03:28.345Z,101503.73
2023-05-14T15:05:56.848Z,101502.04
2023-05-14T15:08:30.187Z,101501.05
2023-05-14T15:10:59.562Z,101504.95
2023-05-14T15:13:28.642Z,101502.46
2023-05-14T15:15:56.927Z,101497.73
2023-05-14T15:18:26.130Z,101493.70
2023-05-14T15:20:54.413Z,101486.25
2023-05-14T15:23:22.512Z,101486.80
2023-05-14T15:25:51.180Z,101487.64
2023-05-14T15:28:19.916Z,101484.23
2023-05-14T15:30:48.921Z,101478.52
2023-05-14T15:33:19.728Z,101476.30
2023-05-14T15:35:48.203Z,101470.59
2023-05-14T15:38:16.361Z,101468.33
2023-05-14T15:40:44.773Z,101465.78
2023-05-14T15:43:12.937Z,101457.79
2023-05-14T15:45:41.380Z,101447.31
2023-05-14T15:48:09.766Z,101447.89
2023-05-14T15:50:38.712Z,101447.42
2023-05-14T15:53:07.207Z,101444.52
2023-05-14T15:55:35.808Z,101442.90
2023-05-14T15:58:04.025Z,101440.55
2023-05-14T16:00:35.303Z,101432.19
2023-05-14T16:03:04.989Z,101433.16
2023-05-14T16:05:33.412Z,101430.40
2023-05-14T16:08:01.726Z,101427.95
2023-05-14T16:10:30.078Z,101428.10
2023-05-14T16:12:58.334Z,101431.78
2023-05-14T16:15:26.552Z,101431.74
2023-05-14T16:17:54.737Z,101431.79
2023-05-14T16:20:23.558Z,101429.98
2023-05-14T16:22:52.212Z,101429.27
2023-05-14T16:25:20.487Z,101428.73
2023-05-14T16:27:49.285Z,101429.09
2023-05-14T16:30:17.770Z,101433.45
2023-05-14T16:32:49.655Z,101436.55
2023-05-14T16:35:18.118Z,101433.05
2023-05-14T16:37:46.833Z,101435.46
2023-05-14T16:40:16.468Z,101434.28
2023-05-14T16:42:46.438Z,101437.48
2023-05-14T16:45:16.169Z,101435.04
2023-05-14T16:47:45.025Z,101429.11
2023-05-14T16:50:13.843Z,101427.64
2023-05-14T16:52:42.123Z,101429.14
2023-05-14T16:55:10.606Z,101433.85
2023-05-14T16:57:38.992Z,101437.08
2023-05-14T17:00:09.729Z,101444.02
2023-05-14T17:02:38.354Z,101446.47
2023-05-14T17:05:07.961Z,101442.30
2023-05-14T17:07:38.506Z,101440.98
2023-05-14T17:10:07.621Z,101438.49
2023-05-14T17:12:36.050Z,101436.77
2023-05-14T17:15:07.423Z,101436.52
2023-05-14T17:17:35.735Z,101440.79
2023-05-14T17:20:05.987Z,101445.45
2023-05-14T17:22:34.728Z,101450.54
2023-05-14T17:25:03.402Z,101457.35
2023-05-14T17:27:33.514Z,101455.37
2023-05-14T17:30:03.539Z,101463.71
2023-05-14T17:32:32.099Z,101471.50
2023-05-14T17:35:00.558Z,101478.98
2023-05-14T17:37:29.122Z,101477.92
2023-05-14T17:39:57.296Z,101481.61
2023-05-14T17:42:25.667Z,101484.23
2023-05-14T17:44:54.149Z,101487.40
2023-05-14T17:47:23.251Z,101490.02
2023-05-14T17:49:51.646Z,101490.86
2023-05-14T17:52:19.944Z,101492.59
2023-05-14T17:54:48.315Z,101499.61
2023-05-14T17:57:17.318Z,101507.62
2023-05-14T17:59:45.612Z,101515.55
2023-05-14T18:02:13.863Z,101523.88
2023-05-14T18:04:42.074Z,101525.34
2023-05-14T18:07:10.889Z,101522.08
2023-05-14T18:09:39.155Z,101516.23
2023-05-14T18:12:08.176Z,101511.39
2023-05-14T18:14:36.378Z,101510.20
2023-05-14T18:17:05.094Z,101508.11
2023-05-14T18:19:33.401Z,101507.95
2023-05-14T18:22:01.980Z,101499.79
2023-05-14T18:24:30.395Z,101494.90
2023-05-14T18:26:59.675Z,101489.84
2023-05-14T18:29:28.189Z,101489.74
2023-05-14T18:31:56.859Z,101483.02
2023-05-14T18:34:27.801Z,101479.41
2023-05-14T18:36:56.290Z,101479.93
2023-05-14T18:39:24.572Z,101478.67
2023-05-14T18:41:52.861Z,101473.54
2023-05-14T18:44:23.139Z,101467.45
2023-05-14T18:46:51.668Z,101469.04
2023-05-14T18:49:19.852Z,101463.13
2023-05-14T18:51:48.445Z,101463.71
2023-05-14T18:54:16.738Z,101469.81
2023-05-14T18:56:47.477Z,101471.23
2023-05-14T18:59:15.984Z,101479.50
2023-05-14T19:01:44.620Z,101485.54
2023-05-14T19:04:13.654Z,101490.83
2023-05-14T19:06:45.505Z,101493.94
2023-05-14T19:09:14.935Z,101495.66
2023-05-14T19:11:43.173Z,101499.45
2023-05-14T19:14:11.604Z,101495.48
2023-05-14T19:16:41.076Z,101494.27
2023-05-14T19:19:09.523Z,101493.66
2023-05-14T19:21:40.617Z,101495.74
2023-05-14T19:24:09.411Z,101496.52
2023-05-14T19:26:38.093Z,101496.13
2023-05-14T19:29:06.496Z,101491.18
2023-05-14T19:31:35.138Z,101491.79
2023-05-14T19:34:03.464Z,101496.39
2023-05-14T19:36:32.590Z,101501.98
2023-05-14T19:39:00.901Z,101502.75
2023-05-14T19:41:29.790Z,101503.02
2023-05-14T19:43:58.029Z,101506.39
2023-05-14T19:46:26.624Z,101501.63
2023-05-14T19:48:55.597Z,101503.97
2023-05-14T19:51:23.785Z,101500.46
2023-05-14T19:53:52.167Z,101498.67
2023-05-14T19:56:21.702Z,101498.29
2023-05-14T19:58:49.956Z,101498.42
2023-05-14T20:01:18.980Z,101493.98
2023-05-14T20:03:47.676Z,101492.02
2023-05-14T20:06:17.678Z,101489.70
2023-05-14T20:08:46.598Z,101486.75
2023-05-14T20:11:15.993Z,101490.61
2023-05-14T20:13:44.379Z,101486.08
2023-05-14T20:16:13.710Z,101488.58
2023-05-14T20:18:42.202Z,101478.58
2023-05-14T20:21:11.113Z,101478.15
2023-05-14T20:23:39.449Z,101475.59
2023-05-14T20:26:08.308Z,101468.03
2023-05-14T20:28:37.119Z,101471.98
2023-05-14T20:31:05.981Z,101463.84
2023-05-14T20:33:34.199Z,101458.98
2023-05-14T20:36:04.624Z,101452.52
2023-05-14T20:38:34.923Z,101446.36
2023-05-14T20:41:03.351Z,101450.20
2023-05-14T20:43:31.747Z,101445.83
2023-05-14T20:46:00.840Z,101441.39
2023-05-14T20:48:29.084Z,101437.64
2023-05-14T20:50:57.302Z,101430.71
2023-05-14T20:53:25.666Z,101433.10
2023-05-14T20:55:54.064Z,101436.19
2023-05-14T20:58:22.301Z,101435.23
2023-05-14T21:00:50.590Z,101437.42
2023-05-14T21:03:18.961Z,101433.44
2023-05-14T21:05:47.391Z,101428.24
2023-05-14T21:08:16.759Z,101423.67
2023-05-14T21:10:44.887Z,101429.12
2023-05-14T21:13:13.171Z,101427.89
2023-05-14T21:15:41.237Z,101430.91
2023-05-14T21:18:09.891Z,101432.14
2023-05-14T21:20:39.136Z,101435.75
2023-05-14T21:23:07.827Z,101435.36
2023-05-14T21:25:36.229Z,101437.39
2023-05-14T21:28:04.969Z,101437.02
2023-05-14T21:30:33.400Z,101436.64
2023-05-14T21:33:01.648Z,101429.64
2023-05-14T21:35:30.256Z,101429.19
2023-05-14T21:37:58.849Z,101427.20
2023-05-14T21:40:27.011Z,101422.84
2023-05-14T21:42:55.111Z,101421.98
2023-05-14T21:45:23.829Z,101416.66
2023-05-14T21:47:52.722Z,101420.47
2023-05-14T21:50:21.606Z,101418.59
2023-05-14T21:52:49.766Z,101418.40
2023-05-14T21:55:18.152Z,101420.10
2023-05-14T21:57:46.610Z,101421.03
2023-05-14T22:00:18.810Z,101419.19
2023-05-14T22:02:46.993Z,101418.97
2023-05-14T22:05:15.370Z,101419.43
2023-05-14T22:07:44.480Z,101411.59
2023-05-14T22:10:14.313Z,101410.31
2023-05-14T22:12:44.197Z,101406.80
2023-05-14T22:15:13.113Z,101406.86
2023-05-14T22:17:41.960Z,101401.52
2023-05-14T22:20:11.312Z,101401.04
2023-05-14T22:22:39.689Z,101396.53
2023-05-14T22:25:08.854Z,101387.19
2023-05-14T22:27:37.481Z,101389.25
2023-05-14T22:30:06.998Z,101386.75
2023-05-14T22:32:35.325Z,101381.06
2023-05-14T22:35:04.333Z,101381.15
2023-05-14T22:37:32.559Z,101372.80
2023-05-14T22:40:03.476Z,101367.07
2023-05-14T22:42:31.579Z,101364.13
2023-05-14T22:44:59.861Z,101369.92
2023-05-14T22:47:28.060Z,101364.11
2023-05-14T22:49:56.235Z,101364.20
2023-05-14T22:52:24.306Z,101361.00
2023-05-14T22:54:53.407Z,101356.65
2023-05-14T22:57:22.290Z,101353.52
2023-05-14T22:59:50.473Z,101357.72
2023-05-14T23:02:19.055Z,101360.70
2023-05-14T23:04:47.528Z,101365.88
2023-05-14T23:07:17.042Z,101370.21
2023-05-14T23:09:45.761Z,101365.52
2023-05-14T23:12:14.855Z,101359.36
2023-05-14T23:14:43.049Z,101355.21
2023-05-14T23:17:11.832Z,101349.42
2023-05-14T23:19:40.154Z,101347.25
2023-05-14T23:22:08.908Z,101350.36
2023-05-14T23:24:37.459Z,101352.08
2023-05-14T23:27:06.183Z,101351.41
2023-05-14T23:29:35.168Z,101359.54
2023-05-14T23:32:03.604Z,101360.53
2023-05-14T23:34:32.071Z,101354.98
2023-05-14T23:37:00.956Z,101355.38
2023-05-14T23:39:29.330Z,101347.77
2023-05-14T23:41:57.721Z,101346.90
2023-05-14T23:44:26.616Z,101347.55
2023-05-14T23:46:55.119Z,101348.26
2023-05-14T23:49:23.794Z,101351.36
2023-05-14T23:51:51.968Z,101355.73
2023-05-14T23:54:20.106Z,101354.45
2023-05-14T23:56:48.328Z,101352.87
2023-05-14T23:59:16.762Z,101355.75
